sensor_id;sensor_type;location;lat;lon;timestamp;temperature;humidity
39665;DHT22;26679;50.872;4.332;2023-11-21T00:02:17;20.30;82.90
39665;DHT22;26679;50.872;4.332;2023-11-21T00:04:43;20.20;82.90
39665;DHT22;26679;50.872;4.332;2023-11-21T00:07:08;20.20;82.90
39665;DHT22;26679;50.872;4.332;2023-11-21T00:09:34;20.20;83.00
39665;DHT22;26679;50.872;4.332;2023-11-21T00:12:01;20.20;83.00
39665;DHT22;26679;50.872;4.332;2023-11-21T00:14:27;20.20;83.00
39665;DHT22;26679;50.872;4.332;2023-11-21T00:16:53;20.20;83.10
39665;DHT22;26679;50.872;4.332;2023-11-21T00:19:18;20.20;83.10
39665;DHT22;26679;50.872;4.332;2023-11-21T00:21:44;20.20;83.10
39665;DHT22;26679;50.872;4.332;2023-11-21T00:24:11;20.20;83.20
39665;DHT22;26679;50.872;4.332;2023-11-21T00:26:39;20.10;83.10
39665;DHT22;26679;50.872;4.332;2023-11-21T00:29:04;20.10;83.10
39665;DHT22;26679;50.872;4.332;2023-11-21T00:31:36;20.10;83.20
39665;DHT22;26679;50.872;4.332;2023-11-21T00:34:02;20.10;83.20
39665;DHT22;26679;50.872;4.332;2023-11-21T00:36:28;20.10;83.30
39665;DHT22;26679;50.872;4.332;2023-11-21T00:38:54;20.10;83.30
39665;DHT22;26679;50.872;4.332;2023-11-21T00:41:21;20.00;83.30
39665;DHT22;26679;50.872;4.332;2023-11-21T00:43:46;20.00;83.30
39665;DHT22;26679;50.872;4.332;2023-11-21T00:46:12;20.00;83.40
39665;DHT22;26679;50.872;4.332;2023-11-21T00:48:37;20.00;83.40
39665;DHT22;26679;50.872;4.332;2023-11-21T00:51:02;20.00;83.40
39665;DHT22;26679;50.872;4.332;2023-11-21T00:53:28;20.00;83.50
39665;DHT22;26679;50.872;4.332;2023-11-21T00:55:54;20.00;83.50
39665;DHT22;26679;50.872;4.332;2023-11-21T00:58:23;19.90;83.50
39665;DHT22;26679;50.872;4.332;2023-11-21T01:00:48;19.90;83.50
39665;DHT22;26679;50.872;4.332;2023-11-21T01:03:14;19.90;83.50
39665;DHT22;26679;50.872;4.332;2023-11-21T01:05:39;19.90;83.50
39665;DHT22;26679;50.872;4.332;2023-11-21T01:08:05;19.90;83.60
39665;DHT22;26679;50.872;4.332;2023-11-21T01:10:30;19.90;83.60
39665;DHT22;26679;50.872;4.332;2023-11-21T01:12:56;19.90;83.60
39665;DHT22;26679;50.872;4.332;2023-11-21T01:15:23;19.90;83.70
39665;DHT22;26679;50.872;4.332;2023-11-21T01:17:50;19.80;83.70
39665;DHT22;26679;50.872;4.332;2023-11-21T01:20:15;19.80;83.70
39665;DHT22;26679;50.872;4.332;2023-11-21T01:22:40;19.80;83.80
39665;DHT22;26679;50.872;4.332;2023-11-21T01:25:06;19.80;83.80
39665;DHT22;26679;50.872;4.332;2023-11-21T01:27:33;19.80;83.80
39665;DHT22;26679;50.872;4.332;2023-11-21T01:29:59;19.70;83.80
39665;DHT22;26679;50.872;4.332;2023-11-21T01:32:25;19.70;83.90
39665;DHT22;26679;50.872;4.332;2023-11-21T01:34:50;19.70;83.90
39665;DHT22;26679;50.872;4.332;2023-11-21T01:37:16;19.70;83.90
39665;DHT22;26679;50.872;4.332;2023-11-21T01:39:43;19.70;84.10
39665;DHT22;26679;50.872;4.332;2023-11-21T01:42:09;19.70;83.90
39665;DHT22;26679;50.872;4.332;2023-11-21T01:44:36;19.70;84.00
39665;DHT22;26679;50.872;4.332;2023-11-21T01:47:02;19.60;84.00
39665;DHT22;26679;50.872;4.332;2023-11-21T01:49:30;19.60;84.00
39665;DHT22;26679;50.872;4.332;2023-11-21T01:51:56;19.60;84.00
39665;DHT22;26679;50.872;4.332;2023-11-21T01:54:22;19.60;84.00
39665;DHT22;26679;50.872;4.332;2023-11-21T01:56:47;19.60;84.10
39665;DHT22;26679;50.872;4.332;2023-11-21T01:59:14;19.60;84.10
39665;DHT22;26679;50.872;4.332;2023-11-21T02:01:41;19.60;84.20
39665;DHT22;26679;50.872;4.332;2023-11-21T02:04:06;19.60;84.20
39665;DHT22;26679;50.872;4.332;2023-11-21T02:06:33;19.60;84.20
39665;DHT22;26679;50.872;4.332;2023-11-21T02:08:59;19.50;84.20
39665;DHT22;26679;50.872;4.332;2023-11-21T02:11:25;19.50;84.20
39665;DHT22;26679;50.872;4.332;2023-11-21T02:13:51;19.50;84.30
39665;DHT22;26679;50.872;4.332;2023-11-21T02:16:19;19.50;84.30
39665;DHT22;26679;50.872;4.332;2023-11-21T02:18:46;19.50;84.30
39665;DHT22;26679;50.872;4.332;2023-11-21T02:21:14;19.50;84.40
39665;DHT22;26679;50.872;4.332;2023-11-21T02:23:39;19.50;84.40
39665;DHT22;26679;50.872;4.332;2023-11-21T02:26:09;19.40;84.30
39665;DHT22;26679;50.872;4.332;2023-11-21T02:28:35;19.40;84.40
39665;DHT22;26679;50.872;4.332;2023-11-21T02:31:00;19.40;84.40
39665;DHT22;26679;50.872;4.332;2023-11-21T02:33:28;19.40;84.40
39665;DHT22;26679;50.872;4.332;2023-11-21T02:35:54;19.40;84.40
39665;DHT22;26679;50.872;4.332;2023-11-21T02:38:23;19.40;84.50
39665;DHT22;26679;50.872;4.332;2023-11-21T02:40:48;19.40;84.50
39665;DHT22;26679;50.872;4.332;2023-11-21T02:43:14;19.50;84.60
39665;DHT22;26679;50.872;4.332;2023-11-21T02:45:39;19.40;84.50
39665;DHT22;26679;50.872;4.332;2023-11-21T02:48:07;19.30;84.50
39665;DHT22;26679;50.872;4.332;2023-11-21T02:50:32;19.30;84.60
39665;DHT22;26679;50.872;4.332;2023-11-21T02:52:58;19.30;84.60
39665;DHT22;26679;50.872;4.332;2023-11-21T02:55:26;19.30;84.60
39665;DHT22;26679;50.872;4.332;2023-11-21T02:57:52;19.30;84.60
39665;DHT22;26679;50.872;4.332;2023-11-21T03:00:17;19.30;84.60
39665;DHT22;26679;50.872;4.332;2023-11-21T03:02:43;19.30;84.60
39665;DHT22;26679;50.872;4.332;2023-11-21T03:05:09;19.30;84.70
39665;DHT22;26679;50.872;4.332;2023-11-21T03:07:36;19.30;84.70
39665;DHT22;26679;50.872;4.332;2023-11-21T03:10:01;19.30;84.70
39665;DHT22;26679;50.872;4.332;2023-11-21T03:12:27;19.30;84.70
39665;DHT22;26679;50.872;4.332;2023-11-21T03:14:52;19.30;84.80
39665;DHT22;26679;50.872;4.332;2023-11-21T03:17:19;19.30;84.80
39665;DHT22;26679;50.872;4.332;2023-11-21T03:19:44;19.30;84.70
39665;DHT22;26679;50.872;4.332;2023-11-21T03:22:10;19.30;84.80
39665;DHT22;26679;50.872;4.332;2023-11-21T03:24:37;19.30;84.80
39665;DHT22;26679;50.872;4.332;2023-11-21T03:27:03;19.30;84.70
39665;DHT22;26679;50.872;4.332;2023-11-21T03:29:29;19.40;84.70
39665;DHT22;26679;50.872;4.332;2023-11-21T03:31:54;19.40;85.20
39665;DHT22;26679;50.872;4.332;2023-11-21T03:34:24;19.50;84.70
39665;DHT22;26679;50.872;4.332;2023-11-21T03:36:50;19.50;84.60
39665;DHT22;26679;50.872;4.332;2023-11-21T03:39:15;19.60;84.60
39665;DHT22;26679;50.872;4.332;2023-11-21T03:41:41;19.60;84.50
39665;DHT22;26679;50.872;4.332;2023-11-21T03:44:06;19.70;84.40
39665;DHT22;26679;50.872;4.332;2023-11-21T03:46:32;19.80;84.30
39665;DHT22;26679;50.872;4.332;2023-11-21T03:48:57;19.80;84.70
39665;DHT22;26679;50.872;4.332;2023-11-21T03:51:23;19.90;84.10
39665;DHT22;26679;50.872;4.332;2023-11-21T03:53:48;19.90;84.00
39665;DHT22;26679;50.872;4.332;2023-11-21T03:56:14;20.00;83.90
39665;DHT22;26679;50.872;4.332;2023-11-21T03:58:39;20.00;83.80
39665;DHT22;26679;50.872;4.332;2023-11-21T04:01:05;20.00;83.80
39665;DHT22;26679;50.872;4.332;2023-11-21T04:03:30;20.10;83.70
39665;DHT22;26679;50.872;4.332;2023-11-21T04:05:56;20.10;83.60
39665;DHT22;26679;50.872;4.332;2023-11-21T04:08:22;20.20;83.60
39665;DHT22;26679;50.872;4.332;2023-11-21T04:10:47;20.20;83.50
39665;DHT22;26679;50.872;4.332;2023-11-21T04:13:13;20.20;83.40
39665;DHT22;26679;50.872;4.332;2023-11-21T04:15:39;20.30;83.40
39665;DHT22;26679;50.872;4.332;2023-11-21T04:18:04;20.30;83.40
39665;DHT22;26679;50.872;4.332;2023-11-21T04:20:30;20.30;83.30
39665;DHT22;26679;50.872;4.332;2023-11-21T04:22:55;20.30;83.30
39665;DHT22;26679;50.872;4.332;2023-11-21T04:25:21;20.30;83.20
39665;DHT22;26679;50.872;4.332;2023-11-21T04:27:48;20.30;83.20
39665;DHT22;26679;50.872;4.332;2023-11-21T04:30:14;20.30;83.20
39665;DHT22;26679;50.872;4.332;2023-11-21T04:32:40;20.40;83.10
39665;DHT22;26679;50.872;4.332;2023-11-21T04:35:05;20.40;83.10
39665;DHT22;26679;50.872;4.332;2023-11-21T04:37:31;20.40;83.00
39665;DHT22;26679;50.872;4.332;2023-11-21T04:39:57;20.50;83.10
39665;DHT22;26679;50.872;4.332;2023-11-21T04:42:22;20.50;83.00
39665;DHT22;26679;50.872;4.332;2023-11-21T04:44:48;20.50;83.00
39665;DHT22;26679;50.872;4.332;2023-11-21T04:47:14;20.50;82.90
39665;DHT22;26679;50.872;4.332;2023-11-21T04:49:41;20.50;82.90
39665;DHT22;26679;50.872;4.332;2023-11-21T04:52:07;20.50;83.40
39665;DHT22;26679;50.872;4.332;2023-11-21T04:54:35;20.60;82.90
39665;DHT22;26679;50.872;4.332;2023-11-21T04:57:00;20.60;82.90
39665;DHT22;26679;50.872;4.332;2023-11-21T04:59:26;20.60;82.80
39665;DHT22;26679;50.872;4.332;2023-11-21T05:01:52;20.60;82.80
39665;DHT22;26679;50.872;4.332;2023-11-21T05:04:19;20.60;82.70
39665;DHT22;26679;50.872;4.332;2023-11-21T05:06:44;20.60;82.70
39665;DHT22;26679;50.872;4.332;2023-11-21T05:09:10;20.70;82.80
39665;DHT22;26679;50.872;4.332;2023-11-21T05:11:37;20.60;82.70
39665;DHT22;26679;50.872;4.332;2023-11-21T05:14:03;20.70;82.70
39665;DHT22;26679;50.872;4.332;2023-11-21T05:16:29;20.70;82.70
39665;DHT22;26679;50.872;4.332;2023-11-21T05:18:54;20.70;82.60
39665;DHT22;26679;50.872;4.332;2023-11-21T05:21:28;20.70;82.60
39665;DHT22;26679;50.872;4.332;2023-11-21T05:23:55;20.70;82.60
39665;DHT22;26679;50.872;4.332;2023-11-21T05:26:21;20.70;82.60
39665;DHT22;26679;50.872;4.332;2023-11-21T05:28:47;20.70;82.60
39665;DHT22;26679;50.872;4.332;2023-11-21T05:31:13;20.70;82.60
39665;DHT22;26679;50.872;4.332;2023-11-21T05:33:38;20.70;82.60
39665;DHT22;26679;50.872;4.332;2023-11-21T05:36:04;20.80;82.70
39665;DHT22;26679;50.872;4.332;2023-11-21T05:38:29;20.70;82.60
39665;DHT22;26679;50.872;4.332;2023-11-21T05:40:55;20.70;82.60
39665;DHT22;26679;50.872;4.332;2023-11-21T05:43:20;20.80;82.60
39665;DHT22;26679;50.872;4.332;2023-11-21T05:45:46;20.80;82.60
39665;DHT22;26679;50.872;4.332;2023-11-21T05:48:12;20.80;82.60
39665;DHT22;26679;50.872;4.332;2023-11-21T05:50:37;20.80;82.60
39665;DHT22;26679;50.872;4.332;2023-11-21T05:53:03;20.80;82.60
39665;DHT22;26679;50.872;4.332;2023-11-21T05:55:29;20.80;82.50
39665;DHT22;26679;50.872;4.332;2023-11-21T05:57:54;20.80;82.60
39665;DHT22;26679;50.872;4.332;2023-11-21T06:00:20;20.80;82.60
39665;DHT22;26679;50.872;4.332;2023-11-21T06:02:49;20.80;82.60
39665;DHT22;26679;50.872;4.332;2023-11-21T06:05:17;20.80;82.50
39665;DHT22;26679;50.872;4.332;2023-11-21T06:07:43;20.80;82.50
39665;DHT22;26679;50.872;4.332;2023-11-21T06:10:10;20.90;82.50
39665;DHT22;26679;50.872;4.332;2023-11-21T06:12:36;20.80;82.50
39665;DHT22;26679;50.872;4.332;2023-11-21T06:15:05;20.80;82.50
39665;DHT22;26679;50.872;4.332;2023-11-21T06:17:34;20.90;82.50
39665;DHT22;26679;50.872;4.332;2023-11-21T06:20:10;20.80;82.40
39665;DHT22;26679;50.872;4.332;2023-11-21T06:22:39;20.80;82.40
39665;DHT22;26679;50.872;4.332;2023-11-21T06:25:05;20.80;82.40
39665;DHT22;26679;50.872;4.332;2023-11-21T06:27:32;20.90;82.50
39665;DHT22;26679;50.872;4.332;2023-11-21T06:29:58;20.90;82.90
39665;DHT22;26679;50.872;4.332;2023-11-21T06:32:23;20.90;82.40
39665;DHT22;26679;50.872;4.332;2023-11-21T06:34:49;20.90;82.40
39665;DHT22;26679;50.872;4.332;2023-11-21T06:37:15;20.90;82.40
39665;DHT22;26679;50.872;4.332;2023-11-21T06:39:40;20.90;82.40
39665;DHT22;26679;50.872;4.332;2023-11-21T06:42:06;20.90;82.30
39665;DHT22;26679;50.872;4.332;2023-11-21T06:44:31;20.90;82.40
39665;DHT22;26679;50.872;4.332;2023-11-21T06:46:58;20.90;82.40
39665;DHT22;26679;50.872;4.332;2023-11-21T06:49:24;20.90;82.50
39665;DHT22;26679;50.872;4.332;2023-11-21T06:51:50;20.90;82.60
39665;DHT22;26679;50.872;4.332;2023-11-21T06:54:15;21.00;82.60
39665;DHT22;26679;50.872;4.332;2023-11-21T06:56:41;20.90;82.70
39665;DHT22;26679;50.872;4.332;2023-11-21T06:59:06;20.90;82.70
39665;DHT22;26679;50.872;4.332;2023-11-21T07:01:32;21.00;82.80
39665;DHT22;26679;50.872;4.332;2023-11-21T07:04:04;21.00;82.80
39665;DHT22;26679;50.872;4.332;2023-11-21T07:06:30;21.00;82.80
39665;DHT22;26679;50.872;4.332;2023-11-21T07:08:55;21.00;82.80
39665;DHT22;26679;50.872;4.332;2023-11-21T07:11:21;21.00;82.80
39665;DHT22;26679;50.872;4.332;2023-11-21T07:13:47;21.00;82.80
39665;DHT22;26679;50.872;4.332;2023-11-21T07:16:13;21.00;82.80
39665;DHT22;26679;50.872;4.332;2023-11-21T07:18:40;21.10;82.90
39665;DHT22;26679;50.872;4.332;2023-11-21T07:21:05;21.00;82.90
39665;DHT22;26679;50.872;4.332;2023-11-21T07:23:31;21.00;82.90
39665;DHT22;26679;50.872;4.332;2023-11-21T07:25:56;21.10;83.00
39665;DHT22;26679;50.872;4.332;2023-11-21T07:28:23;21.10;83.10
39665;DHT22;26679;50.872;4.332;2023-11-21T07:30:49;21.10;83.10
39665;DHT22;26679;50.872;4.332;2023-11-21T07:33:15;21.10;83.10
39665;DHT22;26679;50.872;4.332;2023-11-21T07:35:41;21.10;83.10
39665;DHT22;26679;50.872;4.332;2023-11-21T07:38:07;21.10;83.10
39665;DHT22;26679;50.872;4.332;2023-11-21T07:40:32;21.10;83.10
39665;DHT22;26679;50.872;4.332;2023-11-21T07:42:58;21.10;83.10
39665;DHT22;26679;50.872;4.332;2023-11-21T07:45:23;21.10;83.10
39665;DHT22;26679;50.872;4.332;2023-11-21T07:47:49;21.10;83.10
39665;DHT22;26679;50.872;4.332;2023-11-21T07:50:15;21.10;83.20
39665;DHT22;26679;50.872;4.332;2023-11-21T07:52:40;21.10;83.20
39665;DHT22;26679;50.872;4.332;2023-11-21T07:55:06;21.10;83.20
39665;DHT22;26679;50.872;4.332;2023-11-21T07:57:32;21.20;83.30
39665;DHT22;26679;50.872;4.332;2023-11-21T07:59:58;21.20;83.40
39665;DHT22;26679;50.872;4.332;2023-11-21T08:02:23;21.20;83.40
39665;DHT22;26679;50.872;4.332;2023-11-21T08:04:50;21.20;83.50
39665;DHT22;26679;50.872;4.332;2023-11-21T08:07:17;21.20;83.50
39665;DHT22;26679;50.872;4.332;2023-11-21T08:09:42;21.20;83.60
39665;DHT22;26679;50.872;4.332;2023-11-21T08:12:09;21.20;83.60
39665;DHT22;26679;50.872;4.332;2023-11-21T08:14:36;21.20;83.70
39665;DHT22;26679;50.872;4.332;2023-11-21T08:17:04;21.20;83.70
39665;DHT22;26679;50.872;4.332;2023-11-21T08:19:30;21.20;83.70
39665;DHT22;26679;50.872;4.332;2023-11-21T08:21:55;21.20;83.80
39665;DHT22;26679;50.872;4.332;2023-11-21T08:24:21;21.20;83.80
39665;DHT22;26679;50.872;4.332;2023-11-21T08:26:47;21.30;83.90
39665;DHT22;26679;50.872;4.332;2023-11-21T08:29:12;21.30;83.90
39665;DHT22;26679;50.872;4.332;2023-11-21T08:31:39;21.30;84.10
39665;DHT22;26679;50.872;4.332;2023-11-21T08:34:04;21.30;84.20
39665;DHT22;26679;50.872;4.332;2023-11-21T08:36:30;21.30;84.20
39665;DHT22;26679;50.872;4.332;2023-11-21T08:38:56;21.30;84.30
39665;DHT22;26679;50.872;4.332;2023-11-21T08:41:22;21.30;84.80
39665;DHT22;26679;50.872;4.332;2023-11-21T08:43:48;21.30;84.30
39665;DHT22;26679;50.872;4.332;2023-11-21T08:46:14;21.30;84.30
39665;DHT22;26679;50.872;4.332;2023-11-21T08:48:40;21.40;84.40
39665;DHT22;26679;50.872;4.332;2023-11-21T08:51:06;21.40;84.40
39665;DHT22;26679;50.872;4.332;2023-11-21T08:53:32;21.30;84.30
39665;DHT22;26679;50.872;4.332;2023-11-21T08:55:58;21.30;84.20
39665;DHT22;26679;50.872;4.332;2023-11-21T08:58:24;21.40;84.20
39665;DHT22;26679;50.872;4.332;2023-11-21T09:00:49;21.30;84.20
39665;DHT22;26679;50.872;4.332;2023-11-21T09:03:15;21.40;84.30
39665;DHT22;26679;50.872;4.332;2023-11-21T09:05:40;21.40;84.30
39665;DHT22;26679;50.872;4.332;2023-11-21T09:08:06;21.40;84.30
39665;DHT22;26679;50.872;4.332;2023-11-21T09:10:33;21.40;84.30
39665;DHT22;26679;50.872;4.332;2023-11-21T09:13:01;21.40;84.30
39665;DHT22;26679;50.872;4.332;2023-11-21T09:15:27;21.40;84.40
39665;DHT22;26679;50.872;4.332;2023-11-21T09:17:52;21.40;84.40
39665;DHT22;26679;50.872;4.332;2023-11-21T09:20:18;21.40;84.40
39665;DHT22;26679;50.872;4.332;2023-11-21T09:22:48;21.40;84.50
39665;DHT22;26679;50.872;4.332;2023-11-21T09:25:13;21.40;84.50
39665;DHT22;26679;50.872;4.332;2023-11-21T09:27:39;21.40;84.70
39665;DHT22;26679;50.872;4.332;2023-11-21T09:30:05;21.40;84.80
39665;DHT22;26679;50.872;4.332;2023-11-21T09:32:31;21.40;84.90
39665;DHT22;26679;50.872;4.332;2023-11-21T09:34:56;21.40;84.90
39665;DHT22;26679;50.872;4.332;2023-11-21T09:37:23;21.40;84.90
39665;DHT22;26679;50.872;4.332;2023-11-21T09:39:49;21.40;85.00
39665;DHT22;26679;50.872;4.332;2023-11-21T09:42:17;21.40;85.00
39665;DHT22;26679;50.872;4.332;2023-11-21T09:44:58;21.40;84.90
39665;DHT22;26679;50.872;4.332;2023-11-21T09:47:29;21.50;85.00
39665;DHT22;26679;50.872;4.332;2023-11-21T09:49:55;21.50;85.00
39665;DHT22;26679;50.872;4.332;2023-11-21T09:54:48;21.50;84.90
39665;DHT22;26679;50.872;4.332;2023-11-21T09:57:14;21.50;84.80
39665;DHT22;26679;50.872;4.332;2023-11-21T09:59:40;21.50;84.80
39665;DHT22;26679;50.872;4.332;2023-11-21T10:02:07;21.50;84.80
39665;DHT22;26679;50.872;4.332;2023-11-21T10:04:37;21.60;84.90
39665;DHT22;26679;50.872;4.332;2023-11-21T10:07:03;21.60;85.00
39665;DHT22;26679;50.872;4.332;2023-11-21T10:09:31;21.60;85.20
39665;DHT22;26679;50.872;4.332;2023-11-21T10:11:58;21.60;85.30
39665;DHT22;26679;50.872;4.332;2023-11-21T10:14:26;21.60;85.30
39665;DHT22;26679;50.872;4.332;2023-11-21T10:16:54;21.60;85.30
39665;DHT22;26679;50.872;4.332;2023-11-21T10:19:22;21.60;85.30
39665;DHT22;26679;50.872;4.332;2023-11-21T10:21:49;21.60;85.30
39665;DHT22;26679;50.872;4.332;2023-11-21T10:24:14;21.60;85.40
39665;DHT22;26679;50.872;4.332;2023-11-21T10:26:40;21.60;85.40
39665;DHT22;26679;50.872;4.332;2023-11-21T10:29:07;21.60;85.40
39665;DHT22;26679;50.872;4.332;2023-11-21T10:31:32;21.70;85.40
39665;DHT22;26679;50.872;4.332;2023-11-21T10:34:15;21.70;85.50
39665;DHT22;26679;50.872;4.332;2023-11-21T10:36:41;21.70;85.50
39665;DHT22;26679;50.872;4.332;2023-11-21T10:39:07;21.80;85.40
39665;DHT22;26679;50.872;4.332;2023-11-21T10:41:32;21.80;85.30
39665;DHT22;26679;50.872;4.332;2023-11-21T10:43:58;21.80;85.20
39665;DHT22;26679;50.872;4.332;2023-11-21T10:46:23;21.80;85.20
39665;DHT22;26679;50.872;4.332;2023-11-21T10:48:54;21.80;85.30
39665;DHT22;26679;50.872;4.332;2023-11-21T10:51:22;21.80;85.20
39665;DHT22;26679;50.872;4.332;2023-11-21T10:53:51;21.80;85.70
39665;DHT22;26679;50.872;4.332;2023-11-21T10:56:16;21.90;85.20
39665;DHT22;26679;50.872;4.332;2023-11-21T10:58:48;21.90;85.10
39665;DHT22;26679;50.872;4.332;2023-11-21T11:01:16;21.90;85.00
39665;DHT22;26679;50.872;4.332;2023-11-21T11:03:42;21.90;85.00
39665;DHT22;26679;50.872;4.332;2023-11-21T11:06:09;21.90;85.00
39665;DHT22;26679;50.872;4.332;2023-11-21T11:08:37;22.00;84.90
39665;DHT22;26679;50.872;4.332;2023-11-21T11:11:04;22.00;84.80
39665;DHT22;26679;50.872;4.332;2023-11-21T11:13:30;22.10;84.60
39665;DHT22;26679;50.872;4.332;2023-11-21T11:15:57;22.10;84.40
39665;DHT22;26679;50.872;4.332;2023-11-21T11:18:24;22.00;84.30
39665;DHT22;26679;50.872;4.332;2023-11-21T11:20:50;22.00;84.30
39665;DHT22;26679;50.872;4.332;2023-11-21T11:23:27;22.00;84.30
39665;DHT22;26679;50.872;4.332;2023-11-21T11:31:21;21.90;84.30
39665;DHT22;26679;50.872;4.332;2023-11-21T11:33:53;22.00;84.40
39665;DHT22;26679;50.872;4.332;2023-11-21T11:36:34;21.90;84.30
39665;DHT22;26679;50.872;4.332;2023-11-21T11:39:01;22.00;84.30
39665;DHT22;26679;50.872;4.332;2023-11-21T11:41:31;22.00;84.30
39665;DHT22;26679;50.872;4.332;2023-11-21T11:44:00;22.00;84.30
39665;DHT22;26679;50.872;4.332;2023-11-21T11:46:41;22.00;84.30
39665;DHT22;26679;50.872;4.332;2023-11-21T11:49:07;22.00;84.30
39665;DHT22;26679;50.872;4.332;2023-11-21T11:51:33;21.90;84.30
39665;DHT22;26679;50.872;4.332;2023-11-21T11:54:01;21.90;84.30
39665;DHT22;26679;50.872;4.332;2023-11-21T11:58:53;21.80;84.40
39665;DHT22;26679;50.872;4.332;2023-11-21T12:01:19;21.80;84.40
39665;DHT22;26679;50.872;4.332;2023-11-21T12:04:10;21.80;84.40
39665;DHT22;26679;50.872;4.332;2023-11-21T12:06:34;21.80;84.40
39665;DHT22;26679;50.872;4.332;2023-11-21T12:09:01;21.80;84.50
39665;DHT22;26679;50.872;4.332;2023-11-21T12:11:30;21.80;84.50
39665;DHT22;26679;50.872;4.332;2023-11-21T12:13:56;21.80;84.50
39665;DHT22;26679;50.872;4.332;2023-11-21T12:16:22;21.80;84.50
39665;DHT22;26679;50.872;4.332;2023-11-21T12:18:48;21.80;84.60
39665;DHT22;26679;50.872;4.332;2023-11-21T12:21:13;21.80;84.70
39665;DHT22;26679;50.872;4.332;2023-11-21T12:23:39;21.80;84.70
39665;DHT22;26679;50.872;4.332;2023-11-21T12:26:06;21.80;84.70
39665;DHT22;26679;50.872;4.332;2023-11-21T12:28:31;21.80;84.70
39665;DHT22;26679;50.872;4.332;2023-11-21T12:30:57;21.70;84.60
39665;DHT22;26679;50.872;4.332;2023-11-21T12:33:22;21.80;84.70
39665;DHT22;26679;50.872;4.332;2023-11-21T12:35:48;21.80;84.70
39665;DHT22;26679;50.872;4.332;2023-11-21T12:38:13;21.80;84.70
39665;DHT22;26679;50.872;4.332;2023-11-21T12:40:39;21.80;84.70
39665;DHT22;26679;50.872;4.332;2023-11-21T12:43:05;21.90;84.70
39665;DHT22;26679;50.872;4.332;2023-11-21T12:45:32;21.90;84.70
39665;DHT22;26679;50.872;4.332;2023-11-21T12:48:01;22.00;84.60
39665;DHT22;26679;50.872;4.332;2023-11-21T12:50:28;22.00;84.50
39665;DHT22;26679;50.872;4.332;2023-11-21T12:52:54;22.00;84.50
39665;DHT22;26679;50.872;4.332;2023-11-21T12:55:23;22.00;84.40
39665;DHT22;26679;50.872;4.332;2023-11-21T12:57:52;22.00;84.40
39665;DHT22;26679;50.872;4.332;2023-11-21T13:00:29;22.00;84.40
39665;DHT22;26679;50.872;4.332;2023-11-21T13:02:57;22.10;84.40
39665;DHT22;26679;50.872;4.332;2023-11-21T13:05:30;22.10;84.40
39665;DHT22;26679;50.872;4.332;2023-11-21T13:07:56;22.00;84.40
39665;DHT22;26679;50.872;4.332;2023-11-21T13:10:26;22.00;84.40
39665;DHT22;26679;50.872;4.332;2023-11-21T13:12:56;22.00;84.50
39665;DHT22;26679;50.872;4.332;2023-11-21T13:15:24;22.00;84.50
39665;DHT22;26679;50.872;4.332;2023-11-21T13:17:50;22.00;84.50
39665;DHT22;26679;50.872;4.332;2023-11-21T13:20:16;22.00;84.50
39665;DHT22;26679;50.872;4.332;2023-11-21T13:22:46;21.90;84.50
39665;DHT22;26679;50.872;4.332;2023-11-21T13:25:12;22.00;84.60
39665;DHT22;26679;50.872;4.332;2023-11-21T13:27:39;21.90;84.50
39665;DHT22;26679;50.872;4.332;2023-11-21T13:30:06;21.90;84.60
39665;DHT22;26679;50.872;4.332;2023-11-21T13:32:33;21.90;84.60
39665;DHT22;26679;50.872;4.332;2023-11-21T13:34:58;21.90;84.60
39665;DHT22;26679;50.872;4.332;2023-11-21T13:37:25;21.90;84.60
39665;DHT22;26679;50.872;4.332;2023-11-21T13:39:53;21.90;84.60
39665;DHT22;26679;50.872;4.332;2023-11-21T13:42:20;21.90;84.60
39665;DHT22;26679;50.872;4.332;2023-11-21T13:44:55;21.90;84.60
39665;DHT22;26679;50.872;4.332;2023-11-21T13:47:21;21.90;84.60
39665;DHT22;26679;50.872;4.332;2023-11-21T13:49:50;21.90;84.80
39665;DHT22;26679;50.872;4.332;2023-11-21T13:52:15;21.90;84.90
39665;DHT22;26679;50.872;4.332;2023-11-21T13:54:42;21.90;84.90
39665;DHT22;26679;50.872;4.332;2023-11-21T13:57:08;21.80;84.90
39665;DHT22;26679;50.872;4.332;2023-11-21T13:59:35;21.80;84.90
39665;DHT22;26679;50.872;4.332;2023-11-21T14:02:02;21.80;85.00
39665;DHT22;26679;50.872;4.332;2023-11-21T14:04:42;21.80;85.00
39665;DHT22;26679;50.872;4.332;2023-11-21T14:07:14;21.80;85.00
39665;DHT22;26679;50.872;4.332;2023-11-21T14:09:50;21.80;85.10
39665;DHT22;26679;50.872;4.332;2023-11-21T14:12:17;21.80;85.10
39665;DHT22;26679;50.872;4.332;2023-11-21T14:14:43;21.80;85.10
39665;DHT22;26679;50.872;4.332;2023-11-21T14:17:10;21.80;85.10
39665;DHT22;26679;50.872;4.332;2023-11-21T14:19:36;21.80;85.10
39665;DHT22;26679;50.872;4.332;2023-11-21T14:22:05;21.80;85.10
39665;DHT22;26679;50.872;4.332;2023-11-21T14:24:32;21.80;85.10
39665;DHT22;26679;50.872;4.332;2023-11-21T14:26:58;21.80;85.10
39665;DHT22;26679;50.872;4.332;2023-11-21T14:29:24;21.70;85.00
39665;DHT22;26679;50.872;4.332;2023-11-21T14:31:50;21.70;85.00
39665;DHT22;26679;50.872;4.332;2023-11-21T14:34:16;21.70;85.10
39665;DHT22;26679;50.872;4.332;2023-11-21T14:36:42;21.70;85.30
39665;DHT22;26679;50.872;4.332;2023-11-21T14:39:10;21.70;85.30
39665;DHT22;26679;50.872;4.332;2023-11-21T14:41:46;21.70;85.40
39665;DHT22;26679;50.872;4.332;2023-11-21T14:44:12;21.60;85.30
39665;DHT22;26679;50.872;4.332;2023-11-21T14:46:39;21.70;85.40
39665;DHT22;26679;50.872;4.332;2023-11-21T14:49:08;21.70;85.30
39665;DHT22;26679;50.872;4.332;2023-11-21T14:51:50;21.30;85.10
39665;DHT22;26679;50.872;4.332;2023-11-21T14:54:39;21.70;85.30
39665;DHT22;26679;50.872;4.332;2023-11-21T14:57:04;21.70;85.20
39665;DHT22;26679;50.872;4.332;2023-11-21T14:59:35;21.70;85.20
39665;DHT22;26679;50.872;4.332;2023-11-21T15:02:00;21.70;85.20
39665;DHT22;26679;50.872;4.332;2023-11-21T15:04:39;21.70;85.20
39665;DHT22;26679;50.872;4.332;2023-11-21T15:07:07;21.70;85.20
39665;DHT22;26679;50.872;4.332;2023-11-21T15:09:33;21.70;85.20
39665;DHT22;26679;50.872;4.332;2023-11-21T15:12:06;21.70;85.10
39665;DHT22;26679;50.872;4.332;2023-11-21T15:14:43;21.70;85.10
39665;DHT22;26679;50.872;4.332;2023-11-21T15:17:10;21.70;85.10
39665;DHT22;26679;50.872;4.332;2023-11-21T15:19:37;21.70;85.10
39665;DHT22;26679;50.872;4.332;2023-11-21T15:22:04;21.70;85.00
39665;DHT22;26679;50.872;4.332;2023-11-21T15:24:30;21.70;85.00
39665;DHT22;26679;50.872;4.332;2023-11-21T15:26:55;21.70;85.00
39665;DHT22;26679;50.872;4.332;2023-11-21T15:29:21;21.70;85.00
39665;DHT22;26679;50.872;4.332;2023-11-21T15:31:47;21.70;85.00
39665;DHT22;26679;50.872;4.332;2023-11-21T15:34:16;21.60;85.00
39665;DHT22;26679;50.872;4.332;2023-11-21T15:36:42;21.60;85.00
39665;DHT22;26679;50.872;4.332;2023-11-21T15:39:09;21.60;85.10